Time;durP1;ratioP1;P1;durP2;ratioP2;P2;SDS_P1;SDS_P2;PMS_P1;PMS_P2;Temp;Humidity;BMP_temperature;BMP_pressure;BME280_temperature;BME280_humidity;BME280_pressure;Samples;Min_cycle;Max_cycle;Signal;HPM_P1;HPM_P2
2023/10/06 00:01:20;;;;;;;11.98;6.35;;;10.80;99.90;;;;;;5013456;28;20060;-76
2023/10/06 00:03:47;;;;;;;12.73;5.90;;;10.80;99.90;;;;;;5013426;28;20492;-75
2023/10/06 00:06:22;;;;;;;13.73;6.30;;;10.70;99.90;;;;;;5013138;28;20022;-76
2023/10/06 00:08:51;;;;;;;16.58;6.40;;;10.80;99.90;;;;;;5013194;28;20058;-76
2023/10/06 00:11:28;;;;;;;12.82;6.65;;;10.80;99.90;;;;;;5013610;28;20030;-76
2023/10/06 00:14:00;;;;;;;12.43;6.10;;;10.70;99.90;;;;;;5013708;28;20072;-76
2023/10/06 00:16:27;;;;;;;10.30;6.15;;;10.70;99.90;;;;;;5013089;28;20034;-75
2023/10/06 00:18:56;;;;;;;10.35;6.70;;;10.70;99.90;;;;;;5012566;28;20133;-76
2023/10/06 00:21:22;;;;;;;12.80;6.90;;;10.70;99.90;;;;;;5013584;28;20060;-75
2023/10/06 00:23:47;;;;;;;13.98;6.93;;;10.70;99.90;;;;;;5013453;28;20045;-75
2023/10/06 00:26:16;;;;;;;12.82;6.80;;;10.70;99.90;;;;;;5016462;28;20029;-75
2023/10/06 00:28:44;;;;;;;16.80;7.57;;;10.60;99.90;;;;;;5017376;28;20037;-75
2023/10/06 00:31:12;;;;;;;19.67;7.68;;;10.70;99.90;;;;;;5016982;28;20375;-75
2023/10/06 00:33:41;;;;;;;19.48;7.60;;;10.90;99.90;;;;;;5016030;28;20029;-75
2023/10/06 00:36:17;;;;;;;16.00;7.43;;;10.90;99.90;;;;;;5017282;28;20053;-76
2023/10/06 00:38:45;;;;;;;15.85;7.28;;;10.80;99.90;;;;;;5016814;28;20120;-76
2023/10/06 00:41:14;;;;;;;16.05;6.75;;;10.80;99.90;;;;;;5015921;28;20026;-76
2023/10/06 00:43:41;;;;;;;15.80;7.57;;;10.80;99.90;;;;;;5015846;28;20022;-76
2023/10/06 00:46:07;;;;;;;14.00;7.03;;;10.70;99.90;;;;;;5016473;28;20021;-76
2023/10/06 00:48:40;;;;;;;13.93;6.43;;;10.70;99.90;;;;;;5016540;28;20587;-76
2023/10/06 00:51:16;;;;;;;12.15;6.40;;;10.60;99.90;;;;;;5016581;28;20489;-76
2023/10/06 00:53:43;;;;;;;11.48;6.18;;;10.50;99.90;;;;;;5016594;28;20388;-76
2023/10/06 00:56:15;;;;;;;18.83;7.38;;;10.50;99.90;;;;;;5016199;28;20041;-76
2023/10/06 00:58:41;;;;;;;23.98;8.02;;;10.50;99.90;;;;;;5016269;28;20058;-76
2023/10/06 01:01:12;;;;;;;14.07;7.43;;;10.60;99.90;;;;;;5015546;28;20037;-76
2023/10/06 01:03:38;;;;;;;18.00;7.32;;;10.60;99.90;;;;;;5016301;28;20060;-75
2023/10/06 01:06:12;;;;;;;11.27;6.95;;;10.60;99.90;;;;;;5016393;28;20026;-76
2023/10/06 01:08:37;;;;;;;19.45;7.30;;;10.60;99.90;;;;;;5016269;28;20033;-76
2023/10/06 01:11:11;;;;;;;14.05;6.72;;;10.50;99.90;;;;;;5015861;28;20112;-76
2023/10/06 01:13:52;;;;;;;15.50;7.57;;;10.50;99.90;;;;;;5016154;28;20026;-75
2023/10/06 01:16:18;;;;;;;16.55;7.25;;;10.50;99.90;;;;;;5016406;28;20030;-75
2023/10/06 01:18:43;;;;;;;12.75;6.38;;;10.40;99.90;;;;;;5015148;28;20042;-75
2023/10/06 01:21:17;;;;;;;13.50;6.82;;;10.40;99.90;;;;;;5016309;28;20034;-76
2023/10/06 01:23:46;;;;;;;14.25;7.28;;;10.30;99.90;;;;;;5015372;28;20018;-76
2023/10/06 01:26:13;;;;;;;17.35;7.80;;;10.30;99.90;;;;;;5015923;28;20022;-76
2023/10/06 01:28:45;;;;;;;15.23;7.10;;;10.40;99.90;;;;;;5015347;28;20043;-75
2023/10/06 01:31:12;;;;;;;12.95;6.63;;;10.40;99.90;;;;;;5015605;28;20428;-75
2023/10/06 01:33:38;;;;;;;21.60;8.45;;;10.30;99.90;;;;;;5015730;28;20021;-75
2023/10/06 01:36:13;;;;;;;20.95;8.50;;;10.30;99.90;;;;;;5015110;28;20473;-76
2023/10/06 01:38:43;;;;;;;15.65;7.25;;;10.40;99.90;;;;;;5015732;28;20088;-76
2023/10/06 01:41:09;;;;;;;19.98;8.25;;;10.40;99.90;;;;;;5015096;28;20041;-76
2023/10/06 01:43:35;;;;;;;17.58;8.95;;;10.40;99.90;;;;;;5015448;28;20030;-74
2023/10/06 01:46:00;;;;;;;11.50;7.32;;;10.50;99.90;;;;;;5015343;28;20036;-75
2023/10/06 01:48:33;;;;;;;13.05;7.60;;;10.40;99.90;;;;;;5014629;28;20053;-76
2023/10/06 01:50:59;;;;;;;24.85;8.27;;;10.40;99.90;;;;;;5015258;28;20026;-76
2023/10/06 01:53:32;;;;;;;19.80;7.45;;;10.40;99.90;;;;;;5015836;28;20495;-75
2023/10/06 01:56:01;;;;;;;12.73;7.47;;;10.40;99.90;;;;;;5015398;28;20026;-75
2023/10/06 01:58:27;;;;;;;15.38;7.40;;;10.40;99.90;;;;;;5014808;28;20488;-76
2023/10/06 02:00:52;;;;;;;11.38;7.22;;;10.30;99.90;;;;;;5015109;28;20030;-75
2023/10/06 02:03:21;;;;;;;10.80;6.85;;;10.30;99.90;;;;;;5015497;28;20377;-75
2023/10/06 02:05:46;;;;;;;15.15;6.82;;;10.30;99.90;;;;;;5015184;28;20022;-76
2023/10/06 02:08:21;;;;;;;18.50;8.48;;;10.30;99.90;;;;;;5015228;28;20467;-76
2023/10/06 02:10:47;;;;;;;18.98;9.00;;;10.30;99.90;;;;;;5015197;28;20029;-75
2023/10/06 02:13:18;;;;;;;24.58;8.45;;;10.40;99.90;;;;;;5014787;28;20033;-76
2023/10/06 02:15:45;;;;;;;22.50;9.00;;;10.50;99.90;;;;;;5014525;28;20033;-76
2023/10/06 02:18:12;;;;;;;22.75;9.35;;;10.60;99.90;;;;;;5014253;28;20046;-76
2023/10/06 02:20:41;;;;;;;19.88;10.07;;;10.60;99.90;;;;;;5015274;28;20468;-75
2023/10/06 02:23:07;;;;;;;25.33;8.98;;;10.60;99.90;;;;;;5014466;28;20026;-75
2023/10/06 02:25:32;;;;;;;24.65;9.60;;;10.70;99.90;;;;;;5014308;28;20076;-76
2023/10/06 02:28:03;;;;;;;25.63;9.38;;;10.80;99.90;;;;;;5014943;28;20034;-75
2023/10/06 02:30:37;;;;;;;15.90;8.43;;;10.90;99.90;;;;;;5014837;28;20084;-75
2023/10/06 02:33:05;;;;;;;22.88;8.82;;;10.90;99.90;;;;;;5014800;28;20025;-75
2023/10/06 02:35:32;;;;;;;18.83;8.68;;;11.00;99.90;;;;;;5014739;28;20026;-76
2023/10/06 02:37:58;;;;;;;17.45;8.40;;;11.10;99.90;;;;;;5014824;28;20092;-74
2023/10/06 02:40:31;;;;;;;20.38;8.60;;;11.10;99.90;;;;;;5014659;28;20104;-76
2023/10/06 02:42:57;;;;;;;21.45;8.25;;;11.20;99.90;;;;;;5014924;28;20034;-76
2023/10/06 02:45:30;;;;;;;15.93;7.75;;;11.20;99.90;;;;;;5013643;28;20022;-76
2023/10/06 02:47:58;;;;;;;20.08;8.52;;;11.10;99.90;;;;;;5014116;28;20464;-76
2023/10/06 02:50:24;;;;;;;16.23;7.72;;;11.00;99.90;;;;;;5014592;28;20523;-75
2023/10/06 02:52:53;;;;;;;22.33;7.78;;;11.00;99.90;;;;;;5014302;28;20029;-76
2023/10/06 02:55:19;;;;;;;18.58;8.10;;;10.90;99.90;;;;;;5014048;28;20069;-76
2023/10/06 02:57:55;;;;;;;18.23;7.55;;;10.80;99.90;;;;;;5013950;28;20032;-76
2023/10/06 03:03:03;;;;;;;16.70;8.18;;;10.70;99.90;;;;;;5062419;22;20897;-70
2023/10/06 03:05:32;;;;;;;21.00;8.73;;;10.70;99.90;;;;;;5051186;28;20116;-70
2023/10/06 03:08:01;;;;;;;22.85;8.48;;;10.90;99.90;;;;;;5051475;28;20033;-70
2023/10/06 03:10:29;;;;;;;21.95;8.73;;;10.90;99.90;;;;;;5050935;28;20490;-70
2023/10/06 03:12:57;;;;;;;17.75;8.75;;;11.00;99.90;;;;;;5051433;28;20037;-70
2023/10/06 03:15:35;;;;;;;20.27;8.60;;;11.10;99.90;;;;;;5051385;28;20027;-70
2023/10/06 03:18:02;;;;;;;20.88;8.00;;;11.20;99.90;;;;;;5051074;28;20537;-70
2023/10/06 03:20:30;;;;;;;19.73;8.27;;;11.20;99.90;;;;;;5051328;28;20363;-70
2023/10/06 03:22:56;;;;;;;20.83;8.80;;;11.30;99.90;;;;;;5050658;28;20048;-70
2023/10/06 03:25:22;;;;;;;14.15;8.30;;;11.20;99.90;;;;;;5050950;28;20403;-70
2023/10/06 03:27:57;;;;;;;18.13;8.82;;;11.30;99.90;;;;;;5050626;28;20091;-70
2023/10/06 03:30:34;;;;;;;18.52;7.55;;;11.30;99.90;;;;;;5050953;28;20044;-70
2023/10/06 03:33:03;;;;;;;18.40;8.13;;;11.30;99.90;;;;;;5050810;28;20471;-70
2023/10/06 03:35:39;;;;;;;22.17;8.63;;;11.30;99.90;;;;;;5050772;28;20110;-70
2023/10/06 03:44:00;;;;;;;15.98;7.85;;;11.30;99.90;;;;;;5111417;28;20024;-76
2023/10/06 03:46:12;;;;;;;18.52;7.38;;;11.30;99.90;;;;;;5110946;28;20559;-69
2023/10/06 03:48:39;;;;;;;20.42;7.97;;;11.30;99.90;;;;;;5111755;28;20024;-68
2023/10/06 03:51:05;;;;;;;21.60;7.57;;;11.20;99.90;;;;;;5111672;28;20024;-68
2023/10/06 03:53:31;;;;;;;19.58;8.20;;;11.10;99.90;;;;;;5111419;28;20015;-68
2023/10/06 03:55:57;;;;;;;19.30;8.45;;;11.10;99.90;;;;;;5111360;28;20030;-68
2023/10/06 03:58:31;;;;;;;25.52;8.48;;;11.00;99.90;;;;;;5111847;28;20058;-68
2023/10/06 04:00:58;;;;;;;13.00;6.95;;;11.00;99.90;;;;;;5111395;28;20059;-68
2023/10/06 04:03:23;;;;;;;24.55;8.77;;;11.00;99.90;;;;;;5111741;28;20020;-68
2023/10/06 04:05:50;;;;;;;18.00;8.30;;;11.10;99.90;;;;;;5111772;28;20419;-69
2023/10/06 04:08:19;;;;;;;15.38;7.85;;;11.10;99.90;;;;;;5111370;28;20031;-70
2023/10/06 04:10:48;;;;;;;19.42;8.07;;;11.10;99.90;;;;;;5111087;28;20035;-70
2023/10/06 04:13:16;;;;;;;17.00;8.18;;;11.10;99.90;;;;;;5110850;28;20031;-68
2023/10/06 04:15:44;;;;;;;25.90;8.77;;;11.10;99.90;;;;;;5111216;28;20480;-68
2023/10/06 04:18:10;;;;;;;22.13;7.97;;;11.10;99.90;;;;;;5111222;28;20036;-68
2023/10/06 04:20:39;;;;;;;18.23;7.57;;;11.10;99.90;;;;;;5111192;28;20595;-68
2023/10/06 04:23:05;;;;;;;20.27;8.15;;;11.10;99.90;;;;;;5111369;28;20034;-69
2023/10/06 04:25:31;;;;;;;21.80;7.72;;;11.20;99.90;;;;;;5111194;28;20099;-69
2023/10/06 04:27:57;;;;;;;14.52;7.25;;;11.20;99.90;;;;;;5110961;28;20473;-69
2023/10/06 04:30:25;;;;;;;18.15;7.57;;;11.30;99.90;;;;;;5110579;28;20034;-69
2023/10/06 04:32:51;;;;;;;18.17;7.60;;;11.30;99.90;;;;;;5110918;28;20038;-69
2023/10/06 04:35:24;;;;;;;17.27;7.88;;;11.30;99.90;;;;;;5111129;28;20465;-69
2023/10/06 04:37:50;;;;;;;17.52;7.30;;;11.30;99.90;;;;;;5110629;28;20032;-69
2023/10/06 04:40:20;;;;;;;22.30;7.80;;;11.40;99.90;;;;;;5109973;28;20052;-69
2023/10/06 04:42:46;;;;;;;19.10;7.43;;;11.40;99.90;;;;;;5110770;28;20016;-69
2023/10/06 04:45:12;;;;;;;16.42;7.40;;;11.40;99.90;;;;;;5110929;28;20035;-69
2023/10/06 04:47:40;;;;;;;18.95;7.30;;;11.40;99.90;;;;;;5110901;28;20020;-69
2023/10/06 04:50:09;;;;;;;17.00;7.68;;;11.40;99.90;;;;;;5110171;28;20397;-69
2023/10/06 04:52:36;;;;;;;14.68;6.82;;;11.40;99.90;;;;;;5096751;28;20035;-69
2023/10/06 04:55:04;;;;;;;13.40;7.00;;;11.40;99.90;;;;;;5097256;28;20476;-68
2023/10/06 04:57:29;;;;;;;16.77;7.40;;;11.40;99.90;;;;;;5096691;28;20100;-68
2023/10/06 04:59:55;;;;;;;16.75;7.07;;;11.40;99.90;;;;;;5096650;28;20067;-68
2023/10/06 05:02:22;;;;;;;12.23;6.72;;;11.40;99.90;;;;;;5096079;28;20422;-68
2023/10/06 05:04:47;;;;;;;20.48;6.70;;;11.40;99.90;;;;;;5096633;28;20045;-68
2023/10/06 05:07:13;;;;;;;20.20;6.93;;;11.40;99.90;;;;;;5096788;28;20136;-68
2023/10/06 05:09:40;;;;;;;19.17;7.03;;;11.40;99.90;;;;;;5096287;28;20026;-68
2023/10/06 05:12:05;;;;;;;16.23;7.40;;;11.40;99.90;;;;;;5096708;28;20030;-68
2023/10/06 05:14:34;;;;;;;14.15;7.00;;;11.40;99.90;;;;;;5096515;28;20381;-69
2023/10/06 05:16:59;;;;;;;18.60;6.82;;;11.40;99.90;;;;;;5096356;28;20028;-69
2023/10/06 05:19:26;;;;;;;20.35;6.82;;;11.40;99.90;;;;;;5096306;28;20040;-68
2023/10/06 05:21:53;;;;;;;16.88;6.55;;;11.40;99.90;;;;;;5095804;28;20035;-68
2023/10/06 05:24:18;;;;;;;18.73;6.88;;;11.40;99.90;;;;;;5096588;28;20442;-68
2023/10/06 05:26:44;;;;;;;16.20;7.15;;;11.40;99.90;;;;;;5096277;28;20117;-69
2023/10/06 05:29:14;;;;;;;15.35;6.90;;;11.40;99.90;;;;;;5096243;28;20115;-68
2023/10/06 05:31:40;;;;;;;15.15;6.78;;;11.40;99.90;;;;;;5096525;28;20113;-68
2023/10/06 05:34:07;;;;;;;20.65;7.10;;;11.30;99.90;;;;;;5096493;28;20419;-69
2023/10/06 05:36:33;;;;;;;19.13;7.20;;;11.40;99.90;;;;;;5096442;28;20030;-68
2023/10/06 05:38:59;;;;;;;16.58;7.18;;;11.40;99.90;;;;;;5095911;28;20476;-68
2023/10/06 05:41:32;;;;;;;15.30;6.65;;;11.40;99.90;;;;;;5095971;28;20024;-68
2023/10/06 05:43:58;;;;;;;19.73;7.25;;;11.40;99.90;;;;;;5095977;28;20026;-68
2023/10/06 05:46:24;;;;;;;16.02;7.22;;;11.40;99.90;;;;;;5095814;28;20111;-68
2023/10/06 05:48:51;;;;;;;15.98;6.63;;;11.40;99.90;;;;;;5095854;28;20019;-68
2023/10/06 05:51:21;;;;;;;13.15;6.93;;;11.40;99.90;;;;;;5095892;28;20515;-68
2023/10/06 05:53:48;;;;;;;13.38;6.78;;;11.50;99.90;;;;;;5095387;28;20025;-68
2023/10/06 05:56:15;;;;;;;17.15;6.55;;;11.50;99.90;;;;;;5095589;28;20377;-68
2023/10/06 05:58:43;;;;;;;18.23;6.45;;;11.50;99.90;;;;;;5095773;28;20519;-68
2023/10/06 06:01:12;;;;;;;17.65;7.00;;;11.50;99.90;;;;;;5095444;28;20030;-68
2023/10/06 06:03:45;;;;;;;11.48;5.93;;;11.50;99.90;;;;;;5089833;28;20039;-68
2023/10/06 06:06:14;;;;;;;14.23;5.75;;;11.60;99.90;;;;;;5089096;28;20066;-68
2023/10/06 06:08:43;;;;;;;20.15;6.95;;;11.60;99.90;;;;;;5078039;28;20043;-68
2023/10/06 06:11:08;;;;;;;13.65;6.43;;;11.70;99.90;;;;;;5077019;28;20021;-69
2023/10/06 06:13:36;;;;;;;13.82;6.85;;;11.70;99.90;;;;;;5084461;28;20509;-69
2023/10/06 06:16:02;;;;;;;12.20;6.22;;;11.80;99.90;;;;;;5083831;28;20392;-69
2023/10/06 06:18:28;;;;;;;18.73;6.35;;;11.80;99.90;;;;;;5082659;28;20031;-69
2023/10/06 06:20:54;;;;;;;18.23;6.75;;;11.90;99.90;;;;;;5090365;28;20036;-69
2023/10/06 06:23:20;;;;;;;16.58;6.35;;;12.00;99.90;;;;;;5084338;28;20028;-69
2023/10/06 06:25:46;;;;;;;14.13;5.72;;;12.20;99.90;;;;;;5076412;28;20037;-69
2023/10/06 06:28:12;;;;;;;13.88;5.75;;;12.60;99.90;;;;;;5075883;28;20470;-69
2023/10/06 06:30:39;;;;;;;14.43;5.50;;;13.20;99.90;;;;;;5088551;28;20101;-70
2023/10/06 06:33:08;;;;;;;12.82;5.35;;;14.10;99.90;;;;;;5083793;28;20440;-70
2023/10/06 06:35:35;;;;;;;12.90;4.88;;;14.30;67.70;;;;;;5084966;28;20078;-69
2023/10/06 06:38:04;;;;;;;9.55;4.82;;;14.50;35.10;;;;;;5092059;28;20464;-69
2023/10/06 06:40:31;;;;;;;12.43;4.72;;;14.80;21.80;;;;;;5089333;28;20135;-69
2023/10/06 06:42:57;;;;;;;11.65;4.30;;;14.80;1.40;;;;;;5087745;28;20070;-69
2023/10/06 06:45:25;;;;;;;10.82;5.18;;;15.00;1.00;;;;;;5090234;28;20078;-70
2023/10/06 06:47:51;;;;;;;10.23;4.70;;;15.10;1.00;;;;;;5090938;28;20028;-70
2023/10/06 06:50:18;;;;;;;12.88;4.47;;;15.20;1.00;;;;;;5091824;28;20668;-70
2023/10/06 06:52:45;;;;;;;11.73;4.35;;;15.60;1.00;;;;;;5086792;28;20439;-69
2023/10/06 06:55:14;;;;;;;14.02;4.40;;;15.80;1.00;;;;;;5087958;28;20553;-70
2023/10/06 06:57:43;;;;;;;12.68;4.75;;;16.00;1.00;;;;;;5079746;28;20028;-70
2023/10/06 07:00:15;;;;;;;12.85;3.88;;;16.20;1.00;;;;;;5090126;28;20032;-70
2023/10/06 07:02:43;;;;;;;12.43;4.35;;;15.80;1.00;;;;;;5090068;28;20031;-70
2023/10/06 07:05:10;;;;;;;14.55;4.80;;;15.40;1.00;;;;;;5085846;28;20024;-70
2023/10/06 07:07:36;;;;;;;13.95;4.63;;;15.30;1.00;;;;;;5082989;28;20085;-70
2023/10/06 07:10:06;;;;;;;9.75;4.70;;;15.50;1.00;;;;;;5090857;28;20032;-70
2023/10/06 07:12:32;;;;;;;9.35;4.20;;;16.00;1.00;;;;;;5084141;28;20040;-70
2023/10/06 07:14:57;;;;;;;11.13;4.07;;;16.40;1.00;;;;;;5072658;28;20047;-70
2023/10/06 07:17:24;;;;;;;8.40;3.97;;;16.80;99.90;;;;;;5090356;28;20390;-70
2023/10/06 07:19:50;;;;;;;10.35;4.18;;;17.20;99.90;;;;;;5092213;28;20379;-70
2023/10/06 07:22:16;;;;;;;11.73;4.07;;;17.00;99.90;;;;;;5092308;28;20050;-70
2023/10/06 07:24:41;;;;;;;11.02;4.15;;;16.60;99.90;;;;;;5091872;28;20028;-70
2023/10/06 07:27:08;;;;;;;13.13;3.95;;;16.60;99.90;;;;;;5081001;28;20024;-70
2023/10/06 07:29:33;;;;;;;8.00;4.15;;;16.70;99.90;;;;;;5079930;28;20025;-70
2023/10/06 07:32:00;;;;;;;10.32;4.25;;;16.70;99.90;;;;;;5091941;28;20039;-70
2023/10/06 07:34:27;;;;;;;8.00;3.95;;;16.50;99.90;;;;;;5091064;28;20367;-70
2023/10/06 07:36:53;;;;;;;11.30;4.05;;;16.30;1.00;;;;;;5093481;28;20089;-69
2023/10/06 07:39:20;;;;;;;11.27;4.43;;;16.40;1.00;;;;;;5093505;28;20493;-69
2023/10/06 07:41:46;;;;;;;8.27;3.63;;;16.40;1.00;;;;;;5082195;28;20119;-70
2023/10/06 07:44:14;;;;;;;13.52;4.40;;;16.30;1.00;;;;;;5092901;28;20119;-69
2023/10/06 07:46:41;;;;;;;12.02;3.97;;;16.20;1.00;;;;;;5076713;28;20494;-69
2023/10/06 07:49:07;;;;;;;7.70;3.70;;;15.90;1.00;;;;;;5087332;28;20055;-69
2023/10/06 07:51:33;;;;;;;15.80;4.00;;;16.10;1.00;;;;;;5093506;28;20386;-69
2023/10/06 07:53:59;;;;;;;10.75;3.83;;;16.20;1.00;;;;;;5081827;28;20036;-69
2023/10/06 07:56:26;;;;;;;8.93;4.20;;;16.00;1.00;;;;;;5085824;28;20486;-69
2023/10/06 07:58:53;;;;;;;12.82;4.20;;;16.10;1.00;;;;;;5088350;28;20116;-69
2023/10/06 08:01:19;;;;;;;8.68;3.85;;;16.50;1.00;;;;;;5081146;28;20477;-70
2023/10/06 08:03:45;;;;;;;11.50;3.85;;;16.60;99.90;;;;;;5087436;28;20024;-70
2023/10/06 08:06:11;;;;;;;12.63;4.13;;;16.70;99.90;;;;;;5092585;28;20039;-69
2023/10/06 08:08:38;;;;;;;8.63;3.45;;;16.60;99.90;;;;;;5093674;28;20028;-70
2023/10/06 08:11:05;;;;;;;11.30;3.65;;;16.40;1.00;;;;;;5093245;28;20043;-69
2023/10/06 08:13:34;;;;;;;8.45;4.05;;;16.30;1.00;;;;;;5112003;28;20520;-70
2023/10/06 08:16:00;;;;;;;8.55;3.47;;;16.40;1.00;;;;;;5113526;28;20363;-69
2023/10/06 08:18:28;;;;;;;10.48;4.28;;;16.50;99.90;;;;;;5111544;28;20035;-70
2023/10/06 08:20:54;;;;;;;13.68;3.88;;;16.60;99.90;;;;;;5088867;28;20077;-70
2023/10/06 08:23:20;;;;;;;10.60;3.72;;;16.80;99.90;;;;;;5079045;28;20552;-70
2023/10/06 08:25:46;;;;;;;9.98;3.97;;;16.90;99.90;;;;;;5084016;28;20020;-70
2023/10/06 08:28:12;;;;;;;12.98;3.60;;;16.80;99.90;;;;;;5082685;28;20454;-70
2023/10/06 08:30:38;;;;;;;8.68;3.58;;;16.90;99.90;;;;;;5091320;28;20055;-70
2023/10/06 08:33:08;;;;;;;8.32;3.60;;;16.80;99.90;;;;;;5094241;28;20513;-70
2023/10/06 08:35:34;;;;;;;8.55;3.85;;;16.70;99.90;;;;;;5091941;28;20077;-71
2023/10/06 08:38:00;;;;;;;12.98;3.70;;;16.40;99.90;;;;;;5090615;28;20032;-71
2023/10/06 08:40:27;;;;;;;8.52;3.78;;;16.70;1.00;;;;;;5090317;28;20075;-70
2023/10/06 08:42:56;;;;;;;7.32;3.35;;;17.20;99.90;;;;;;5099462;28;20036;-70
2023/10/06 08:45:23;;;;;;;12.15;3.85;;;18.00;1.00;;;;;;5100031;28;20539;-71
2023/10/06 08:47:55;;;;;;;8.77;3.78;;;18.30;1.00;;;;;;5076703;28;20067;-71
2023/10/06 08:50:22;;;;;;;10.18;3.50;;;18.50;99.90;;;;;;5077131;28;20040;-71
2023/10/06 08:52:50;;;;;;;10.18;3.38;;;18.20;99.90;;;;;;5095926;28;20039;-71
2023/10/06 08:55:17;;;;;;;8.10;3.65;;;18.30;1.00;;;;;;5082324;28;20035;-72
2023/10/06 08:57:45;;;;;;;7.57;3.20;;;18.20;45.70;;;;;;5078882;28;20032;-71
2023/10/06 09:00:14;;;;;;;11.57;3.35;;;18.40;1.00;;;;;;5079130;28;20024;-70
2023/10/06 09:02:41;;;;;;;10.82;3.85;;;17.80;99.90;;;;;;5086588;28;20039;-71
2023/10/06 09:05:12;;;;;;;5.63;3.08;;;18.00;99.90;;;;;;5089256;28;20028;-71
2023/10/06 09:07:37;;;;;;;5.57;2.97;;;18.20;1.00;;;;;;5095909;28;20504;-70
2023/10/06 09:10:17;;;;;;;9.35;3.33;;;18.20;1.00;;;;;;5096037;28;20024;-71
2023/10/06 09:12:43;;;;;;;9.75;3.42;;;18.70;99.90;;;;;;5093455;28;20020;-71
2023/10/06 09:15:15;;;;;;;8.30;3.80;;;19.10;99.90;;;;;;5078252;28;20401;-71
2023/10/06 09:17:41;;;;;;;9.57;3.20;;;19.20;99.90;;;;;;5090747;28;20032;-70
2023/10/06 09:20:08;;;;;;;11.80;4.00;;;20.00;99.90;;;;;;5090625;28;20025;-70
2023/10/06 09:22:49;;;;;;;9.35;3.42;;;19.40;99.90;;;;;;5075719;28;20020;-70
2023/10/06 09:25:18;;;;;;;11.65;3.67;;;19.10;1.00;;;;;;5085630;28;20065;-70
2023/10/06 09:27:44;;;;;;;10.57;4.18;;;19.30;95.00;;;;;;5092683;28;20034;-70
2023/10/06 09:30:11;;;;;;;10.20;3.50;;;19.00;99.90;;;;;;5094336;28;20118;-70
2023/10/06 09:32:39;;;;;;;7.40;3.33;;;19.00;21.90;;;;;;5092742;28;20039;-71
2023/10/06 09:35:19;;;;;;;9.18;3.60;;;19.30;1.00;;;;;;5080915;28;20033;-70
2023/10/06 09:37:44;;;;;;;14.13;3.85;;;19.40;99.90;;;;;;5088830;28;20508;-69
2023/10/06 09:40:19;;;;;;;9.32;3.35;;;19.00;1.00;;;;;;5094649;28;20080;-70
2023/10/06 09:42:47;;;;;;;10.65;3.13;;;18.90;1.00;;;;;;5078996;28;20443;-70
2023/10/06 09:45:18;;;;;;;8.98;3.35;;;19.10;1.00;;;;;;5090411;28;20122;-70
2023/10/06 09:47:49;;;;;;;12.10;3.45;;;18.90;1.00;;;;;;5093561;28;20031;-70
2023/10/06 09:50:19;;;;;;;13.80;3.65;;;19.10;99.90;;;;;;5094843;28;20119;-70
2023/10/06 09:52:47;;;;;;;9.20;3.70;;;19.20;1.00;;;;;;5094291;28;20505;-69
2023/10/06 09:55:19;;;;;;;9.80;3.70;;;19.10;99.90;;;;;;5092567;28;20516;-70
2023/10/06 09:57:47;;;;;;;7.38;2.67;;;19.10;99.90;;;;;;5083001;28;20551;-70
2023/10/06 10:00:17;;;;;;;13.35;4.00;;;19.00;99.90;;;;;;5091006;28;20031;-70
2023/10/06 10:02:46;;;;;;;12.77;4.45;;;18.70;99.90;;;;;;5083268;28;20040;-70
2023/10/06 10:05:13;;;;;;;8.77;3.95;;;19.10;99.90;;;;;;5091882;28;20032;-70
2023/10/06 10:07:40;;;;;;;9.45;4.15;;;19.40;99.90;;;;;;5086211;28;20497;-69
2023/10/06 10:10:10;;;;;;;11.15;3.63;;;19.40;99.90;;;;;;5073972;28;20090;-70
2023/10/06 10:12:53;;;;;;;10.80;3.70;;;19.40;99.90;;;;;;5094452;28;20028;-70
2023/10/06 10:15:37;;;;;;;8.52;3.22;;;19.50;99.90;;;;;;5093513;28;20077;-70
2023/10/06 10:18:13;;;;;;;9.55;3.22;;;19.80;99.90;;;;;;5074070;28;20455;-71
2023/10/06 10:20:40;;;;;;;8.63;3.28;;;20.10;99.90;;;;;;5083305;28;20032;-70
2023/10/06 10:23:06;;;;;;;16.33;4.00;;;20.10;99.90;;;;;;5094361;28;20111;-70
2023/10/06 10:25:36;;;;;;;10.63;4.18;;;20.50;1.00;;;;;;5094267;28;20119;-71
2023/10/06 10:28:19;;;;;;;12.05;3.60;;;21.30;91.80;;;;;;5093899;28;20016;-70
2023/10/06 10:31:05;;;;;;;14.93;4.03;;;20.50;1.00;;;;;;5094190;28;20032;-71
2023/10/06 10:33:37;;;;;;;9.82;4.03;;;20.60;99.90;;;;;;5094055;28;20111;-71
2023/10/06 10:36:20;;;;;;;9.00;3.65;;;20.50;1.00;;;;;;5093603;28;20028;-71
2023/10/06 10:39:02;;;;;;;;;;;20.90;24.40;;;;;;5094299;28;20039;-71
2023/10/06 10:41:34;;;;;;;9.70;3.72;;;20.70;1.00;;;;;;5093066;28;19912;-71
2023/10/06 10:44:03;;;;;;;9.95;3.78;;;20.70;1.00;;;;;;5082203;28;20031;-71
2023/10/06 10:46:53;;;;;;;11.85;4.13;;;20.40;1.00;;;;;;5096128;28;20428;-70
2023/10/06 10:49:22;;;;;;;9.55;3.88;;;20.70;99.90;;;;;;5091334;28;20052;-71
2023/10/06 10:51:53;;;;;;;10.63;3.97;;;20.90;99.90;;;;;;5076763;28;20038;-70
2023/10/06 10:54:21;;;;;;;11.60;4.35;;;21.20;99.90;;;;;;5083957;28;20050;-71
2023/10/06 10:56:51;;;;;;;15.95;4.22;;;20.90;1.00;;;;;;5087626;28;20038;-71
2023/10/06 10:59:17;;;;;;;11.85;4.53;;;20.60;1.00;;;;;;5090982;28;20039;-71
2023/10/06 11:01:44;;;;;;;14.40;4.63;;;21.10;99.90;;;;;;5092300;28;20035;-71
2023/10/06 11:06:50;;;;;;;19.35;4.18;;;21.60;99.90;;;;;;5109561;27;20822;-70
2023/10/06 11:09:26;;;;;;;11.68;3.90;;;21.40;1.00;;;;;;5091692;28;20043;-70
2023/10/06 11:11:58;;;;;;;11.00;3.65;;;20.70;99.90;;;;;;5089195;28;20038;-69
2023/10/06 11:14:26;;;;;;;10.90;3.70;;;20.20;99.90;;;;;;5088144;28;20028;-69
2023/10/06 11:16:53;;;;;;;12.95;4.20;;;19.80;21.70;;;;;;5086331;28;20054;-69
2023/10/06 11:19:18;;;;;;;12.15;4.35;;;19.80;99.90;;;;;;5088353;28;20035;-69
2023/10/06 11:21:44;;;;;;;12.95;3.97;;;20.30;99.90;;;;;;5089821;28;20032;-69
2023/10/06 11:24:10;;;;;;;11.55;3.60;;;20.20;99.90;;;;;;5089187;28;20032;-70
2023/10/06 11:26:36;;;;;;;8.00;3.58;;;19.90;99.90;;;;;;5088176;28;20020;-70
2023/10/06 11:29:02;;;;;;;10.10;4.10;;;19.40;99.70;;;;;;5090003;28;20028;-70
2023/10/06 11:31:29;;;;;;;10.90;3.70;;;19.50;80.60;;;;;;5089151;28;20028;-70
2023/10/06 11:33:55;;;;;;;13.02;3.97;;;19.90;1.00;;;;;;5090754;28;20020;-70
2023/10/06 11:36:21;;;;;;;10.00;3.63;;;19.70;1.00;;;;;;5089660;28;20028;-69
2023/10/06 11:38:48;;;;;;;10.35;3.15;;;19.30;1.00;;;;;;5089950;28;20035;-69
2023/10/06 11:41:28;;;;;;;9.48;3.85;;;19.30;1.00;;;;;;5087002;28;20026;-70
2023/10/06 11:43:55;;;;;;;10.80;3.33;;;19.50;99.90;;;;;;5089380;28;20504;-70
2023/10/06 11:46:21;;;;;;;10.52;3.50;;;19.50;99.90;;;;;;5086180;28;20032;-70
2023/10/06 11:48:46;;;;;;;9.68;3.53;;;19.80;99.90;;;;;;5088601;28;20082;-70
2023/10/06 11:51:12;;;;;;;12.82;3.83;;;20.30;99.90;;;;;;5090176;28;20074;-70
2023/10/06 11:53:40;;;;;;;9.85;3.75;;;20.30;99.90;;;;;;5088480;28;20008;-70
2023/10/06 11:56:12;;;;;;;14.93;3.97;;;20.00;11.80;;;;;;5089893;28;20501;-70
2023/10/06 11:58:39;;;;;;;16.10;4.28;;;20.10;99.90;;;;;;5089288;28;20044;-70
2023/10/06 12:01:05;;;;;;;13.43;3.92;;;20.30;1.00;;;;;;5088679;28;20040;-70
2023/10/06 12:03:39;;;;;;;15.02;4.10;;;20.10;1.00;;;;;;5087811;28;20028;-70
2023/10/06 12:06:11;;;;;;;13.55;4.50;;;19.60;69.90;;;;;;5089100;28;20498;-71
2023/10/06 12:08:42;;;;;;;9.60;4.27;;;19.50;99.90;;;;;;5088662;28;20107;-70
2023/10/06 12:11:08;;;;;;;9.57;4.13;;;19.50;99.90;;;;;;5088474;28;20029;-70
2023/10/06 12:13:36;;;;;;;15.85;4.80;;;19.50;99.90;;;;;;5087852;28;20396;-70
2023/10/06 12:16:11;;;;;;;14.40;4.20;;;19.40;1.00;;;;;;5087031;28;20170;-70
2023/10/06 12:18:36;;;;;;;10.23;3.88;;;19.40;1.00;;;;;;5076687;28;20355;-70
2023/10/06 12:21:02;;;;;;;8.63;4.22;;;19.40;30.00;;;;;;5074205;28;20031;-70
2023/10/06 12:23:29;;;;;;;12.13;4.00;;;19.10;99.90;;;;;;5074354;28;20047;-70
2023/10/06 12:25:55;;;;;;;9.77;4.47;;;19.20;99.90;;;;;;5075293;28;20466;-70
2023/10/06 12:28:20;;;;;;;16.60;4.57;;;19.20;1.00;;;;;;5075008;28;20113;-70
2023/10/06 12:30:46;;;;;;;10.48;4.45;;;19.40;1.00;;;;;;5073316;28;20075;-70
2023/10/06 12:33:12;;;;;;;10.65;4.28;;;19.20;99.90;;;;;;5076543;28;20033;-70
2023/10/06 12:35:39;;;;;;;14.95;4.90;;;19.20;99.90;;;;;;5075693;28;20028;-70
2023/10/06 12:38:06;;;;;;;10.90;4.32;;;19.30;99.90;;;;;;5074302;28;20033;-71
2023/10/06 12:40:32;;;;;;;11.27;4.47;;;19.50;99.90;;;;;;5075319;28;20482;-71
2023/10/06 12:42:57;;;;;;;10.85;4.72;;;19.70;99.90;;;;;;5072044;28;20043;-70
2023/10/06 12:45:24;;;;;;;9.43;4.93;;;20.00;99.90;;;;;;5070861;28;20033;-71
2023/10/06 12:47:50;;;;;;;10.32;4.35;;;20.00;99.90;;;;;;5071664;28;20029;-71
2023/10/06 12:50:18;;;;;;;13.23;4.22;;;19.90;1.00;;;;;;5073659;28;20107;-70
2023/10/06 12:52:49;;;;;;;11.77;4.20;;;19.60;1.00;;;;;;5066835;28;20116;-70
2023/10/06 12:55:15;;;;;;;16.05;4.15;;;19.60;99.90;;;;;;5073865;28;20482;-70
2023/10/06 12:57:41;;;;;;;13.23;3.92;;;19.70;99.90;;;;;;5073720;28;20123;-71